sensor_id;sensor_type;location;lat;lon;timestamp;temperature;humidity
41953;DHT22;63613;28.200;112.870;2023-05-02T00:00:08;22.20;58.70
41953;DHT22;63613;28.200;112.870;2023-05-02T00:02:35;22.20;58.70
41953;DHT22;63613;28.200;112.870;2023-05-02T00:05:02;22.20;58.70
41953;DHT22;63613;28.200;112.870;2023-05-02T00:07:29;22.20;58.70
41953;DHT22;63613;28.200;112.870;2023-05-02T00:09:55;22.20;58.80
41953;DHT22;63613;28.200;112.870;2023-05-02T00:12:22;22.20;58.80
41953;DHT22;63613;28.200;112.870;2023-05-02T00:14:49;22.20;58.80
41953;DHT22;63613;28.200;112.870;2023-05-02T00:17:17;22.20;58.80
41953;DHT22;63613;28.200;112.870;2023-05-02T00:19:44;22.30;58.80
41953;DHT22;63613;28.200;112.870;2023-05-02T00:22:11;22.20;58.80
41953;DHT22;63613;28.200;112.870;2023-05-02T00:24:38;22.30;58.80
41953;DHT22;63613;28.200;112.870;2023-05-02T00:27:05;22.30;58.90
41953;DHT22;63613;28.200;112.870;2023-05-02T00:29:33;22.20;58.90
41953;DHT22;63613;28.200;112.870;2023-05-02T00:32:20;22.30;58.90
41953;DHT22;63613;28.200;112.870;2023-05-02T00:34:49;22.30;58.90
41953;DHT22;63613;28.200;112.870;2023-05-02T00:37:16;22.30;58.90
41953;DHT22;63613;28.200;112.870;2023-05-02T00:39:43;22.30;58.80
41953;DHT22;63613;28.200;112.870;2023-05-02T00:42:31;22.30;58.90
41953;DHT22;63613;28.200;112.870;2023-05-02T00:44:59;22.30;58.80
41953;DHT22;63613;28.200;112.870;2023-05-02T00:47:26;22.30;58.90
41953;DHT22;63613;28.200;112.870;2023-05-02T00:49:53;22.30;58.90
41953;DHT22;63613;28.200;112.870;2023-05-02T00:52:20;22.30;58.90
41953;DHT22;63613;28.200;112.870;2023-05-02T00:54:47;22.30;58.90
41953;DHT22;63613;28.200;112.870;2023-05-02T00:57:14;22.30;58.90
41953;DHT22;63613;28.200;112.870;2023-05-02T00:59:41;22.30;58.90
41953;DHT22;63613;28.200;112.870;2023-05-02T01:02:54;22.30;58.90
41953;DHT22;63613;28.200;112.870;2023-05-02T01:05:24;22.30;59.00
41953;DHT22;63613;28.200;112.870;2023-05-02T01:08:43;22.30;58.90
41953;DHT22;63613;28.200;112.870;2023-05-02T01:13:57;22.40;59.00
41953;DHT22;63613;28.200;112.870;2023-05-02T01:16:25;22.30;59.00
41953;DHT22;63613;28.200;112.870;2023-05-02T01:18:53;22.30;59.00
41953;DHT22;63613;28.200;112.870;2023-05-02T01:21:41;22.30;59.10
41953;DHT22;63613;28.200;112.870;2023-05-02T01:27:06;22.40;59.00
41953;DHT22;63613;28.200;112.870;2023-05-02T01:29:38;22.40;59.10
41953;DHT22;63613;28.200;112.870;2023-05-02T01:32:07;22.40;59.10
41953;DHT22;63613;28.200;112.870;2023-05-02T01:34:36;22.40;59.10
41953;DHT22;63613;28.200;112.870;2023-05-02T01:37:06;22.40;59.10
41953;DHT22;63613;28.200;112.870;2023-05-02T01:39:37;22.50;59.10
41953;DHT22;63613;28.200;112.870;2023-05-02T01:42:05;22.40;59.00
41953;DHT22;63613;28.200;112.870;2023-05-02T01:44:33;22.40;59.00
41953;DHT22;63613;28.200;112.870;2023-05-02T01:47:03;22.40;59.00
41953;DHT22;63613;28.200;112.870;2023-05-02T01:49:50;22.50;59.00
41953;DHT22;63613;28.200;112.870;2023-05-02T01:52:19;22.50;59.00
41953;DHT22;63613;28.200;112.870;2023-05-02T01:54:47;22.50;59.00
41953;DHT22;63613;28.200;112.870;2023-05-02T01:57:16;22.40;59.00
41953;DHT22;63613;28.200;112.870;2023-05-02T01:59:44;22.50;59.00
41953;DHT22;63613;28.200;112.870;2023-05-02T02:02:12;22.50;59.00
41953;DHT22;63613;28.200;112.870;2023-05-02T02:04:39;22.50;59.10
41953;DHT22;63613;28.200;112.870;2023-05-02T02:07:09;22.50;59.10
41953;DHT22;63613;28.200;112.870;2023-05-02T02:09:37;22.50;59.10
41953;DHT22;63613;28.200;112.870;2023-05-02T02:12:11;22.50;59.10
41953;DHT22;63613;28.200;112.870;2023-05-02T02:14:45;22.50;59.10
41953;DHT22;63613;28.200;112.870;2023-05-02T02:17:24;22.50;59.10
41953;DHT22;63613;28.200;112.870;2023-05-02T02:19:53;22.50;59.10
41953;DHT22;63613;28.200;112.870;2023-05-02T02:22:24;22.50;59.20
41953;DHT22;63613;28.200;112.870;2023-05-02T02:24:56;22.50;59.20
41953;DHT22;63613;28.200;112.870;2023-05-02T02:27:22;22.40;59.20
41953;DHT22;63613;28.200;112.870;2023-05-02T02:29:49;22.50;59.30
41953;DHT22;63613;28.200;112.870;2023-05-02T02:32:16;22.50;59.30
41953;DHT22;63613;28.200;112.870;2023-05-02T02:34:43;22.40;59.30
41953;DHT22;63613;28.200;112.870;2023-05-02T02:37:19;22.50;59.40
41953;DHT22;63613;28.200;112.870;2023-05-02T02:48:01;22.50;59.60
41953;DHT22;63613;28.200;112.870;2023-05-02T02:50:35;22.50;59.60
41953;DHT22;63613;28.200;112.870;2023-05-02T02:53:05;22.50;59.60
41953;DHT22;63613;28.200;112.870;2023-05-02T02:56:00;22.50;59.70
41953;DHT22;63613;28.200;112.870;2023-05-02T02:58:48;22.50;59.60
41953;DHT22;63613;28.200;112.870;2023-05-02T03:01:21;22.50;59.80
41953;DHT22;63613;28.200;112.870;2023-05-02T03:03:51;22.60;59.90
41953;DHT22;63613;28.200;112.870;2023-05-02T03:06:19;22.50;59.80
41953;DHT22;63613;28.200;112.870;2023-05-02T03:08:46;22.60;59.80
41953;DHT22;63613;28.200;112.870;2023-05-02T03:11:12;22.60;59.90
41953;DHT22;63613;28.200;112.870;2023-05-02T03:13:39;22.60;59.80
41953;DHT22;63613;28.200;112.870;2023-05-02T03:18:59;22.70;59.90
41953;DHT22;63613;28.200;112.870;2023-05-02T03:21:27;22.70;59.90
41953;DHT22;63613;28.200;112.870;2023-05-02T03:24:01;22.70;59.90
41953;DHT22;63613;28.200;112.870;2023-05-02T03:26:28;22.80;59.90
41953;DHT22;63613;28.200;112.870;2023-05-02T03:28:55;22.80;59.80
41953;DHT22;63613;28.200;112.870;2023-05-02T03:31:25;22.80;59.90
41953;DHT22;63613;28.200;112.870;2023-05-02T03:33:52;22.90;59.90
41953;DHT22;63613;28.200;112.870;2023-05-02T03:36:19;22.90;60.00
41953;DHT22;63613;28.200;112.870;2023-05-02T03:38:46;22.90;60.10
41953;DHT22;63613;28.200;112.870;2023-05-02T03:41:13;23.00;60.00
41953;DHT22;63613;28.200;112.870;2023-05-02T03:43:40;23.00;59.90
41953;DHT22;63613;28.200;112.870;2023-05-02T03:46:08;23.00;59.90
41953;DHT22;63613;28.200;112.870;2023-05-02T03:48:37;23.00;59.70
41953;DHT22;63613;28.200;112.870;2023-05-02T03:51:05;23.00;59.70
41953;DHT22;63613;28.200;112.870;2023-05-02T03:53:35;23.10;59.60
41953;DHT22;63613;28.200;112.870;2023-05-02T03:56:02;23.10;59.50
41953;DHT22;63613;28.200;112.870;2023-05-02T03:58:29;23.20;59.60
41953;DHT22;63613;28.200;112.870;2023-05-02T04:00:56;23.10;59.50
41953;DHT22;63613;28.200;112.870;2023-05-02T04:03:23;23.20;59.40
41953;DHT22;63613;28.200;112.870;2023-05-02T04:05:49;23.10;59.40
41953;DHT22;63613;28.200;112.870;2023-05-02T04:08:20;23.20;59.30
41953;DHT22;63613;28.200;112.870;2023-05-02T04:10:47;23.20;59.40
41953;DHT22;63613;28.200;112.870;2023-05-02T04:13:15;23.20;59.30
41953;DHT22;63613;28.200;112.870;2023-05-02T04:15:44;23.20;59.20
41953;DHT22;63613;28.200;112.870;2023-05-02T04:18:11;23.20;59.20
41953;DHT22;63613;28.200;112.870;2023-05-02T04:20:42;23.20;59.10
41953;DHT22;63613;28.200;112.870;2023-05-02T04:23:10;23.20;59.10
41953;DHT22;63613;28.200;112.870;2023-05-02T04:25:37;23.20;59.10
41953;DHT22;63613;28.200;112.870;2023-05-02T04:28:05;23.20;59.00
41953;DHT22;63613;28.200;112.870;2023-05-02T04:30:32;23.20;59.00
41953;DHT22;63613;28.200;112.870;2023-05-02T04:32:59;23.20;59.00
41953;DHT22;63613;28.200;112.870;2023-05-02T04:35:26;23.30;59.00
41953;DHT22;63613;28.200;112.870;2023-05-02T04:37:53;23.30;58.90
41953;DHT22;63613;28.200;112.870;2023-05-02T04:40:19;23.30;59.00
41953;DHT22;63613;28.200;112.870;2023-05-02T04:42:46;23.30;59.10
41953;DHT22;63613;28.200;112.870;2023-05-02T04:45:13;23.30;59.00
41953;DHT22;63613;28.200;112.870;2023-05-02T04:47:41;23.30;59.20
41953;DHT22;63613;28.200;112.870;2023-05-02T04:50:09;23.30;59.30
41953;DHT22;63613;28.200;112.870;2023-05-02T04:52:35;23.40;59.30
41953;DHT22;63613;28.200;112.870;2023-05-02T04:55:02;23.30;59.30
41953;DHT22;63613;28.200;112.870;2023-05-02T04:57:32;23.40;59.30
41953;DHT22;63613;28.200;112.870;2023-05-02T04:59:59;23.40;59.30
41953;DHT22;63613;28.200;112.870;2023-05-02T05:02:25;23.30;59.30
41953;DHT22;63613;28.200;112.870;2023-05-02T05:04:52;23.50;59.20
41953;DHT22;63613;28.200;112.870;2023-05-02T05:07:22;23.40;59.20
41953;DHT22;63613;28.200;112.870;2023-05-02T05:09:50;23.50;59.10
41953;DHT22;63613;28.200;112.870;2023-05-02T05:12:19;23.50;59.10
41953;DHT22;63613;28.200;112.870;2023-05-02T05:14:47;23.50;59.20
41953;DHT22;63613;28.200;112.870;2023-05-02T05:17:15;23.50;59.10
41953;DHT22;63613;28.200;112.870;2023-05-02T05:19:43;23.40;59.20
41953;DHT22;63613;28.200;112.870;2023-05-02T05:22:30;23.50;59.30
41953;DHT22;63613;28.200;112.870;2023-05-02T05:24:57;23.50;59.30
41953;DHT22;63613;28.200;112.870;2023-05-02T05:27:23;23.40;59.40
41953;DHT22;63613;28.200;112.870;2023-05-02T05:30:12;23.40;59.30
41953;DHT22;63613;28.200;112.870;2023-05-02T05:32:38;23.40;59.40
41953;DHT22;63613;28.200;112.870;2023-05-02T05:35:05;23.40;59.40
41953;DHT22;63613;28.200;112.870;2023-05-02T05:37:33;23.50;59.50
41953;DHT22;63613;28.200;112.870;2023-05-02T05:40:02;23.40;59.50
41953;DHT22;63613;28.200;112.870;2023-05-02T05:42:31;23.40;59.40
41953;DHT22;63613;28.200;112.870;2023-05-02T05:44:59;23.40;59.40
41953;DHT22;63613;28.200;112.870;2023-05-02T05:47:26;23.40;59.40
41953;DHT22;63613;28.200;112.870;2023-05-02T05:49:55;23.40;59.50
41953;DHT22;63613;28.200;112.870;2023-05-02T05:52:22;23.30;59.50
41953;DHT22;63613;28.200;112.870;2023-05-02T05:54:53;23.30;59.50
41953;DHT22;63613;28.200;112.870;2023-05-02T05:57:40;23.30;59.60
41953;DHT22;63613;28.200;112.870;2023-05-02T06:00:07;23.30;59.60
41953;DHT22;63613;28.200;112.870;2023-05-02T06:02:35;23.30;59.70
41953;DHT22;63613;28.200;112.870;2023-05-02T06:05:02;23.30;59.70
41953;DHT22;63613;28.200;112.870;2023-05-02T06:07:29;23.30;59.80
41953;DHT22;63613;28.200;112.870;2023-05-02T06:09:56;23.30;59.70
41953;DHT22;63613;28.200;112.870;2023-05-02T06:15:12;23.30;59.70
41953;DHT22;63613;28.200;112.870;2023-05-02T06:17:41;23.30;59.70
41953;DHT22;63613;28.200;112.870;2023-05-02T06:20:08;23.40;59.80
41953;DHT22;63613;28.200;112.870;2023-05-02T06:22:35;23.40;59.70
41953;DHT22;63613;28.200;112.870;2023-05-02T06:25:02;23.40;59.80
41953;DHT22;63613;28.200;112.870;2023-05-02T06:27:30;23.30;59.80
41953;DHT22;63613;28.200;112.870;2023-05-02T06:29:57;23.30;59.90
41953;DHT22;63613;28.200;112.870;2023-05-02T06:32:23;23.40;60.10
41953;DHT22;63613;28.200;112.870;2023-05-02T06:35:17;23.40;60.20
41953;DHT22;63613;28.200;112.870;2023-05-02T06:37:45;23.40;60.30
41953;DHT22;63613;28.200;112.870;2023-05-02T06:40:12;23.40;60.30
41953;DHT22;63613;28.200;112.870;2023-05-02T06:42:41;23.40;60.50
41953;DHT22;63613;28.200;112.870;2023-05-02T06:45:08;23.40;60.50
41953;DHT22;63613;28.200;112.870;2023-05-02T06:47:35;23.40;60.40
41953;DHT22;63613;28.200;112.870;2023-05-02T06:50:03;23.40;60.40
41953;DHT22;63613;28.200;112.870;2023-05-02T06:52:50;23.30;60.40
41953;DHT22;63613;28.200;112.870;2023-05-02T06:55:16;23.30;60.50
41953;DHT22;63613;28.200;112.870;2023-05-02T06:57:45;23.40;60.70
41953;DHT22;63613;28.200;112.870;2023-05-02T07:00:15;23.40;60.70
41953;DHT22;63613;28.200;112.870;2023-05-02T07:02:44;23.40;61.10
41953;DHT22;63613;28.200;112.870;2023-05-02T07:05:12;23.40;61.10
41953;DHT22;63613;28.200;112.870;2023-05-02T07:07:41;23.40;61.00
41953;DHT22;63613;28.200;112.870;2023-05-02T07:10:08;23.30;61.20
41953;DHT22;63613;28.200;112.870;2023-05-02T07:12:38;23.40;61.10
41953;DHT22;63613;28.200;112.870;2023-05-02T07:15:06;23.40;61.10
41953;DHT22;63613;28.200;112.870;2023-05-02T07:17:33;23.40;61.00
41953;DHT22;63613;28.200;112.870;2023-05-02T07:20:05;23.30;61.10
41953;DHT22;63613;28.200;112.870;2023-05-02T07:22:34;23.40;61.00
41953;DHT22;63613;28.200;112.870;2023-05-02T07:25:01;23.40;61.10
41953;DHT22;63613;28.200;112.870;2023-05-02T07:27:28;23.40;61.30
41953;DHT22;63613;28.200;112.870;2023-05-02T07:29:56;23.40;61.20
41953;DHT22;63613;28.200;112.870;2023-05-02T07:32:23;23.40;61.20
41953;DHT22;63613;28.200;112.870;2023-05-02T07:34:51;23.40;61.20
41953;DHT22;63613;28.200;112.870;2023-05-02T07:37:20;23.40;61.20
41953;DHT22;63613;28.200;112.870;2023-05-02T07:39:49;23.40;61.20
41953;DHT22;63613;28.200;112.870;2023-05-02T07:42:17;23.40;61.20
41953;DHT22;63613;28.200;112.870;2023-05-02T07:45:04;23.40;61.20
41953;DHT22;63613;28.200;112.870;2023-05-02T07:47:32;23.40;61.30
41953;DHT22;63613;28.200;112.870;2023-05-02T07:49:59;23.40;61.40
41953;DHT22;63613;28.200;112.870;2023-05-02T07:52:26;23.50;61.40
41953;DHT22;63613;28.200;112.870;2023-05-02T07:54:53;23.50;61.40
41953;DHT22;63613;28.200;112.870;2023-05-02T07:57:42;23.50;61.40
41953;DHT22;63613;28.200;112.870;2023-05-02T08:00:10;23.50;61.40
41953;DHT22;63613;28.200;112.870;2023-05-02T08:02:37;23.50;61.40
41953;DHT22;63613;28.200;112.870;2023-05-02T08:05:05;23.60;61.40
41953;DHT22;63613;28.200;112.870;2023-05-02T08:07:35;23.60;61.60
41953;DHT22;63613;28.200;112.870;2023-05-02T08:10:03;23.60;61.70
41953;DHT22;63613;28.200;112.870;2023-05-02T08:12:30;23.60;61.70
41953;DHT22;63613;28.200;112.870;2023-05-02T08:14:57;23.60;61.80
41953;DHT22;63613;28.200;112.870;2023-05-02T08:17:24;23.60;62.10
41953;DHT22;63613;28.200;112.870;2023-05-02T08:19:54;23.60;62.00
41953;DHT22;63613;28.200;112.870;2023-05-02T08:22:21;23.60;61.90
41953;DHT22;63613;28.200;112.870;2023-05-02T08:24:49;23.60;61.90
41953;DHT22;63613;28.200;112.870;2023-05-02T08:27:15;23.70;61.90
41953;DHT22;63613;28.200;112.870;2023-05-02T08:29:42;23.70;61.90
41953;DHT22;63613;28.200;112.870;2023-05-02T08:32:09;23.60;61.90
41953;DHT22;63613;28.200;112.870;2023-05-02T08:34:37;23.60;61.80
41953;DHT22;63613;28.200;112.870;2023-05-02T08:37:08;23.70;61.80
41953;DHT22;63613;28.200;112.870;2023-05-02T08:39:35;23.70;62.00
41953;DHT22;63613;28.200;112.870;2023-05-02T08:42:06;23.60;62.10
41953;DHT22;63613;28.200;112.870;2023-05-02T08:44:33;23.70;62.00
41953;DHT22;63613;28.200;112.870;2023-05-02T08:47:00;23.70;62.00
41953;DHT22;63613;28.200;112.870;2023-05-02T08:49:30;23.60;61.90
41953;DHT22;63613;28.200;112.870;2023-05-02T08:52:01;23.60;61.90
41953;DHT22;63613;28.200;112.870;2023-05-02T08:54:29;23.60;62.00
41953;DHT22;63613;28.200;112.870;2023-05-02T08:56:56;23.60;62.20
41953;DHT22;63613;28.200;112.870;2023-05-02T08:59:44;23.70;62.10
41953;DHT22;63613;28.200;112.870;2023-05-02T09:05:09;23.60;62.10
41953;DHT22;63613;28.200;112.870;2023-05-02T09:07:47;23.60;62.30
41953;DHT22;63613;28.200;112.870;2023-05-02T09:10:14;23.60;62.50
41953;DHT22;63613;28.200;112.870;2023-05-02T09:12:43;23.60;62.50
41953;DHT22;63613;28.200;112.870;2023-05-02T09:15:16;23.50;62.40
41953;DHT22;63613;28.200;112.870;2023-05-02T09:17:44;23.60;62.40
41953;DHT22;63613;28.200;112.870;2023-05-02T09:20:13;23.50;62.40
41953;DHT22;63613;28.200;112.870;2023-05-02T09:22:49;23.50;62.40
41953;DHT22;63613;28.200;112.870;2023-05-02T09:25:16;23.50;62.50
41953;DHT22;63613;28.200;112.870;2023-05-02T09:27:53;23.50;63.00
41953;DHT22;63613;28.200;112.870;2023-05-02T09:30:22;23.50;62.80
41953;DHT22;63613;28.200;112.870;2023-05-02T09:32:50;23.50;62.90
41953;DHT22;63613;28.200;112.870;2023-05-02T09:35:22;23.50;63.10
41953;DHT22;63613;28.200;112.870;2023-05-02T09:37:51;23.50;63.00
41953;DHT22;63613;28.200;112.870;2023-05-02T09:40:18;23.40;62.90
41953;DHT22;63613;28.200;112.870;2023-05-02T09:42:45;23.40;62.90
41953;DHT22;63613;28.200;112.870;2023-05-02T09:45:25;23.40;63.00
41953;DHT22;63613;28.200;112.870;2023-05-02T09:47:52;23.40;63.00
41953;DHT22;63613;28.200;112.870;2023-05-02T09:50:53;23.40;63.00
41953;DHT22;63613;28.200;112.870;2023-05-02T09:53:20;23.40;63.00
41953;DHT22;63613;28.200;112.870;2023-05-02T09:55:47;23.30;63.00
41953;DHT22;63613;28.200;112.870;2023-05-02T09:58:21;23.30;63.00
41953;DHT22;63613;28.200;112.870;2023-05-02T10:00:50;23.30;63.00
41953;DHT22;63613;28.200;112.870;2023-05-02T10:03:18;23.30;63.20
41953;DHT22;63613;28.200;112.870;2023-05-02T10:05:46;23.30;63.20
41953;DHT22;63613;28.200;112.870;2023-05-02T10:08:13;23.30;63.20
41953;DHT22;63613;28.200;112.870;2023-05-02T10:10:45;23.30;63.20
41953;DHT22;63613;28.200;112.870;2023-05-02T10:13:17;23.30;63.20
41953;DHT22;63613;28.200;112.870;2023-05-02T10:15:48;23.30;63.20
41953;DHT22;63613;28.200;112.870;2023-05-02T10:18:27;23.30;63.50
41953;DHT22;63613;28.200;112.870;2023-05-02T10:20:58;23.30;63.40
41953;DHT22;63613;28.200;112.870;2023-05-02T10:23:27;23.30;63.60
41953;DHT22;63613;28.200;112.870;2023-05-02T10:25:57;23.30;63.60
41953;DHT22;63613;28.200;112.870;2023-05-02T10:28:44;23.30;63.80
41953;DHT22;63613;28.200;112.870;2023-05-02T10:31:13;23.30;64.00
41953;DHT22;63613;28.200;112.870;2023-05-02T10:33:40;23.30;64.20
41953;DHT22;63613;28.200;112.870;2023-05-02T10:36:09;23.30;64.20
41953;DHT22;63613;28.200;112.870;2023-05-02T10:38:39;23.30;64.10
41953;DHT22;63613;28.200;112.870;2023-05-02T10:41:12;23.30;64.30
41953;DHT22;63613;28.200;112.870;2023-05-02T10:43:44;23.30;64.50
41953;DHT22;63613;28.200;112.870;2023-05-02T10:46:39;23.30;64.80
41953;DHT22;63613;28.200;112.870;2023-05-02T10:49:07;23.30;64.80
41953;DHT22;63613;28.200;112.870;2023-05-02T10:51:35;23.30;64.90
41953;DHT22;63613;28.200;112.870;2023-05-02T11:05:02;23.30;65.70
41953;DHT22;63613;28.200;112.870;2023-05-02T11:07:30;23.30;65.50
41953;DHT22;63613;28.200;112.870;2023-05-02T11:18:10;23.20;65.20
41953;DHT22;63613;28.200;112.870;2023-05-02T11:20:44;23.30;65.30
41953;DHT22;63613;28.200;112.870;2023-05-02T11:25:48;23.30;65.40
41953;DHT22;63613;28.200;112.870;2023-05-02T11:31:00;23.20;65.70
41953;DHT22;63613;28.200;112.870;2023-05-02T11:33:28;23.30;65.60
41953;DHT22;63613;28.200;112.870;2023-05-02T11:36:21;23.30;65.50
41953;DHT22;63613;28.200;112.870;2023-05-02T11:38:54;23.20;65.40
41953;DHT22;63613;28.200;112.870;2023-05-02T11:41:21;23.20;65.70
41953;DHT22;63613;28.200;112.870;2023-05-02T11:44:02;23.20;65.60
41953;DHT22;63613;28.200;112.870;2023-05-02T11:46:29;23.20;65.60
41953;DHT22;63613;28.200;112.870;2023-05-02T11:48:56;23.30;65.60
41953;DHT22;63613;28.200;112.870;2023-05-02T11:51:23;23.20;65.90
41953;DHT22;63613;28.200;112.870;2023-05-02T11:53:50;23.20;66.00
41953;DHT22;63613;28.200;112.870;2023-05-02T11:56:23;23.20;65.90
41953;DHT22;63613;28.200;112.870;2023-05-02T11:59:01;23.20;65.80
41953;DHT22;63613;28.200;112.870;2023-05-02T12:01:29;23.20;65.80
41953;DHT22;63613;28.200;112.870;2023-05-02T12:04:06;23.20;66.00
41953;DHT22;63613;28.200;112.870;2023-05-02T12:06:33;23.20;66.10
41953;DHT22;63613;28.200;112.870;2023-05-02T12:09:20;23.20;66.30
41953;DHT22;63613;28.200;112.870;2023-05-02T12:11:57;23.20;66.30
41953;DHT22;63613;28.200;112.870;2023-05-02T12:14:28;23.20;66.40
41953;DHT22;63613;28.200;112.870;2023-05-02T12:16:58;23.20;66.40
41953;DHT22;63613;28.200;112.870;2023-05-02T12:19:27;23.20;66.30
41953;DHT22;63613;28.200;112.870;2023-05-02T12:21:54;23.20;66.20
41953;DHT22;63613;28.200;112.870;2023-05-02T12:24:40;23.20;66.20
41953;DHT22;63613;28.200;112.870;2023-05-02T12:27:13;23.20;66.30
41953;DHT22;63613;28.200;112.870;2023-05-02T12:32:08;23.20;66.20
41953;DHT22;63613;28.200;112.870;2023-05-02T12:34:35;23.20;66.20
41953;DHT22;63613;28.200;112.870;2023-05-02T12:37:04;23.20;66.50
41953;DHT22;63613;28.200;112.870;2023-05-02T12:39:43;23.20;66.40
41953;DHT22;63613;28.200;112.870;2023-05-02T12:42:14;23.20;66.30
41953;DHT22;63613;28.200;112.870;2023-05-02T12:44:44;23.20;66.30
41953;DHT22;63613;28.200;112.870;2023-05-02T12:47:15;23.20;66.20
41953;DHT22;63613;28.200;112.870;2023-05-02T12:52:20;23.10;66.20
41953;DHT22;63613;28.200;112.870;2023-05-02T12:54:47;23.10;66.20
41953;DHT22;63613;28.200;112.870;2023-05-02T12:57:24;23.20;66.20
41953;DHT22;63613;28.200;112.870;2023-05-02T13:00:11;23.20;66.30
41953;DHT22;63613;28.200;112.870;2023-05-02T13:02:38;23.10;66.20
41953;DHT22;63613;28.200;112.870;2023-05-02T13:05:13;23.10;66.30
41953;DHT22;63613;28.200;112.870;2023-05-02T13:08:00;23.20;66.30
41953;DHT22;63613;28.200;112.870;2023-05-02T13:10:29;23.10;66.40
41953;DHT22;63613;28.200;112.870;2023-05-02T13:12:56;23.20;66.50
41953;DHT22;63613;28.200;112.870;2023-05-02T13:15:23;23.20;66.40
41953;DHT22;63613;28.200;112.870;2023-05-02T13:17:51;23.20;66.40
41953;DHT22;63613;28.200;112.870;2023-05-02T13:20:17;23.20;66.50
41953;DHT22;63613;28.200;112.870;2023-05-02T13:22:44;23.20;66.70
41953;DHT22;63613;28.200;112.870;2023-05-02T13:25:11;23.20;66.60
41953;DHT22;63613;28.200;112.870;2023-05-02T13:27:40;23.20;66.60
41953;DHT22;63613;28.200;112.870;2023-05-02T13:30:08;23.20;66.60
41953;DHT22;63613;28.200;112.870;2023-05-02T13:32:37;23.20;66.50
41953;DHT22;63613;28.200;112.870;2023-05-02T13:35:05;23.20;66.60
41953;DHT22;63613;28.200;112.870;2023-05-02T13:37:34;23.20;66.80
41953;DHT22;63613;28.200;112.870;2023-05-02T13:40:01;23.20;66.80
41953;DHT22;63613;28.200;112.870;2023-05-02T13:42:29;23.20;66.80
41953;DHT22;63613;28.200;112.870;2023-05-02T13:44:58;23.20;66.80
41953;DHT22;63613;28.200;112.870;2023-05-02T13:47:25;23.20;67.00
41953;DHT22;63613;28.200;112.870;2023-05-02T13:49:54;23.20;67.20
41953;DHT22;63613;28.200;112.870;2023-05-02T13:52:41;23.20;67.20
41953;DHT22;63613;28.200;112.870;2023-05-02T13:55:09;23.20;67.10
41953;DHT22;63613;28.200;112.870;2023-05-02T13:57:36;23.20;67.10
41953;DHT22;63613;28.200;112.870;2023-05-02T14:00:03;23.20;67.00
41953;DHT22;63613;28.200;112.870;2023-05-02T14:02:30;23.20;67.00
41953;DHT22;63613;28.200;112.870;2023-05-02T14:04:57;23.20;67.10
41953;DHT22;63613;28.200;112.870;2023-05-02T14:07:24;23.20;67.20
41953;DHT22;63613;28.200;112.870;2023-05-02T14:10:15;23.20;67.10
41953;DHT22;63613;28.200;112.870;2023-05-02T14:12:42;23.20;67.30
41953;DHT22;63613;28.200;112.870;2023-05-02T14:15:10;23.20;67.10
41953;DHT22;63613;28.200;112.870;2023-05-02T14:17:43;23.10;67.10
41953;DHT22;63613;28.200;112.870;2023-05-02T14:20:10;23.10;67.10
41953;DHT22;63613;28.200;112.870;2023-05-02T14:22:38;23.20;67.00
41953;DHT22;63613;28.200;112.870;2023-05-02T14:25:25;23.20;67.10
41953;DHT22;63613;28.200;112.870;2023-05-02T14:27:51;23.20;67.00
41953;DHT22;63613;28.200;112.870;2023-05-02T14:30:19;23.10;67.10
41953;DHT22;63613;28.200;112.870;2023-05-02T14:32:46;23.10;67.20
41953;DHT22;63613;28.200;112.870;2023-05-02T14:35:13;23.10;67.10
41953;DHT22;63613;28.200;112.870;2023-05-02T14:37:40;23.20;67.10
41953;DHT22;63613;28.200;112.870;2023-05-02T14:40:11;23.10;67.10
41953;DHT22;63613;28.200;112.870;2023-05-02T14:42:42;23.10;67.20
41953;DHT22;63613;28.200;112.870;2023-05-02T14:45:10;23.10;67.10
41953;DHT22;63613;28.200;112.870;2023-05-02T14:47:38;23.20;67.30
41953;DHT22;63613;28.200;112.870;2023-05-02T14:50:25;23.10;67.10
41953;DHT22;63613;28.200;112.870;2023-05-02T14:52:52;23.10;67.20
41953;DHT22;63613;28.200;112.870;2023-05-02T14:55:19;23.10;67.10
41953;DHT22;63613;28.200;112.870;2023-05-02T14:57:46;23.20;67.20
41953;DHT22;63613;28.200;112.870;2023-05-02T15:00:16;23.10;67.30
41953;DHT22;63613;28.200;112.870;2023-05-02T15:02:52;23.10;67.20
41953;DHT22;63613;28.200;112.870;2023-05-02T15:05:21;23.10;67.20
41953;DHT22;63613;28.200;112.870;2023-05-02T15:07:47;23.10;67.20
41953;DHT22;63613;28.200;112.870;2023-05-02T15:10:14;23.10;67.20
41953;DHT22;63613;28.200;112.870;2023-05-02T15:12:41;23.10;67.40
41953;DHT22;63613;28.200;112.870;2023-05-02T15:15:09;23.10;67.40
41953;DHT22;63613;28.200;112.870;2023-05-02T15:17:36;23.10;67.70
41953;DHT22;63613;28.200;112.870;2023-05-02T15:20:03;23.20;67.40
41953;DHT22;63613;28.200;112.870;2023-05-02T15:22:30;23.10;67.20
41953;DHT22;63613;28.200;112.870;2023-05-02T15:24:58;23.10;67.30
41953;DHT22;63613;28.200;112.870;2023-05-02T15:27:24;23.10;67.40
41953;DHT22;63613;28.200;112.870;2023-05-02T15:29:53;23.10;67.30
41953;DHT22;63613;28.200;112.870;2023-05-02T15:32:20;23.20;67.20
41953;DHT22;63613;28.200;112.870;2023-05-02T15:34:47;23.20;67.10
41953;DHT22;63613;28.200;112.870;2023-05-02T15:37:16;23.20;67.10
41953;DHT22;63613;28.200;112.870;2023-05-02T15:39:43;23.10;67.10
41953;DHT22;63613;28.200;112.870;2023-05-02T15:42:12;23.10;67.10
41953;DHT22;63613;28.200;112.870;2023-05-02T15:44:41;23.10;67.10
41953;DHT22;63613;28.200;112.870;2023-05-02T15:47:10;23.10;67.30
41953;DHT22;63613;28.200;112.870;2023-05-02T15:49:37;23.10;67.30
41953;DHT22;63613;28.200;112.870;2023-05-02T15:52:05;23.20;67.20
41953;DHT22;63613;28.200;112.870;2023-05-02T15:54:32;23.10;67.20
41953;DHT22;63613;28.200;112.870;2023-05-02T15:56:59;23.20;67.30
41953;DHT22;63613;28.200;112.870;2023-05-02T15:59:27;23.10;67.20
41953;DHT22;63613;28.200;112.870;2023-05-02T16:01:54;23.10;67.20
41953;DHT22;63613;28.200;112.870;2023-05-02T16:04:21;23.10;67.30
41953;DHT22;63613;28.200;112.870;2023-05-02T16:06:52;23.20;67.30
41953;DHT22;63613;28.200;112.870;2023-05-02T16:09:18;23.10;67.30
41953;DHT22;63613;28.200;112.870;2023-05-02T16:11:46;23.10;67.20